Time;durP1;ratioP1;P1;durP2;ratioP2;P2;SDS_P1;SDS_P2;PMS_P1;PMS_P2;Temp;Humidity;BMP_temperature;BMP_pressure;BME280_temperature;BME280_humidity;BME280_pressure;Samples;Min_cycle;Max_cycle;Signal;HPM_P1;HPM_P2
2021/04/14 00:02:03;;;;;;;;;;;;;;;;;;5096993;28;20354;-77
2021/04/14 00:04:29;;;;;;;;;;;;;;;;;;5096457;28;19912;-77
2021/04/14 00:07:06;;;;;;;;;;;;;;;;;;5096957;28;19916;-77
2021/04/14 00:09:31;;;;;;;;;;;;;;;;;;5080877;28;20037;-77
2021/04/14 00:11:57;;;;;;;;;;;;;;;;;;5097972;28;19941;-77
2021/04/14 00:14:23;;;;;;;;;;;;;;;;;;5097969;28;19994;-77
2021/04/14 00:16:48;;;;;;;;;;;;;;;;;;5096814;28;20028;-77
2021/04/14 00:19:14;;;;;;;;;;;;;;;;;;5098271;28;19912;-77
2021/04/14 00:21:39;;;;;;;;;;;;;;;;;;5080759;28;19969;-77
2021/04/14 00:24:05;;;;;;;;;;;;;;;;;;5098577;28;19912;-77
2021/04/14 00:26:30;;;;;;;;;;;;;;;;;;5099272;28;19915;-77
2021/04/14 00:28:56;;;;;;;;;;;;;;;;;;5098468;28;19908;-77
2021/04/14 00:31:35;;;;;;;;;;;;;;;;;;5098423;28;19916;-77
2021/04/14 00:34:01;;;;;;;;;;;;;;;;;;5098598;28;19990;-77
2021/04/14 00:36:27;;;;;;;;;;;;;;;;;;5099103;28;19916;-77
2021/04/14 00:38:53;;;;;;;;;;;;;;;;;;5097730;28;19912;-77
2021/04/14 00:41:18;;;;;;;;;;;;;;;;;;5082935;28;19999;-78
2021/04/14 00:43:43;;;;;;;;;;;;;;;;;;5098887;28;19919;-78
2021/04/14 00:46:08;;;;;;;;;;;;;;;;;;5100249;28;19916;-78
2021/04/14 00:48:34;;;;;;;;;;;;;;;;;;5100732;28;20362;-77
2021/04/14 00:51:00;;;;;;;;;;;;;;;;;;5100850;28;19937;-77
2021/04/14 00:53:26;;;;;;;;;;;;;;;;;;5100114;28;19912;-78
2021/04/14 00:55:53;;;;;;;;;;;;;;;;;;5100581;28;19923;-77
2021/04/14 00:58:19;;;;;;;;;;;;;;;;;;5100658;28;19912;-78
2021/04/14 01:00:49;;;;;;;;;;;;;;;;;;5099749;28;19918;-78
2021/04/14 01:03:22;;;;;;;;;;;;;;;;;;5098740;28;19912;-77
2021/04/14 01:05:48;;;;;;;;;;;;;;;;;;5098655;28;20327;-76
2021/04/14 01:08:14;;;;;;;;;;;;;;;;;;5097684;28;19965;-77
2021/04/14 01:10:39;;;;;;;;;;;;;;;;;;5097299;28;19912;-77
2021/04/14 01:13:05;;;;;;;;;;;;;;;;;;5097512;28;20316;-77
2021/04/14 01:15:34;;;;;;;;;;;;;;;;;;5097275;28;19926;-77
2021/04/14 01:18:00;;;;;;;;;;;;;;;;;;5097365;28;19984;-77
2021/04/14 01:20:26;;;;;;;;;;;;;;;;;;5097488;28;19963;-77
2021/04/14 01:22:51;;;;;;;;;;;;;;;;;;5097559;28;19964;-77
2021/04/14 01:25:23;;;;;;;;;;;;;;;;;;5097351;28;19912;-77
2021/04/14 01:27:48;;;;;;;;;;;;;;;;;;5096668;28;19912;-77
2021/04/14 01:30:24;;;;;;;;;;;;;;;;;;5095272;28;19916;-77
2021/04/14 01:32:50;;;;;;;;;;;;;;;;;;5096864;28;19916;-77
2021/04/14 01:35:16;;;;;;;;;;;;;;;;;;5097437;28;19923;-78
2021/04/14 01:37:42;;;;;;;;;;;;;;;;;;5096056;28;19912;-77
2021/04/14 01:40:08;;;;;;;;;;;;;;;;;;5096918;28;20026;-77
2021/04/14 01:42:33;;;;;;;;;;;;;;;;;;5096977;28;19915;-77
2021/04/14 01:44:59;;;;;;;;;;;;;;;;;;5096118;28;20308;-77
2021/04/14 01:47:24;;;;;;;;;;;;;;;;;;5096375;28;19927;-77
2021/04/14 01:49:49;;;;;;;;;;;;;;;;;;5095786;28;19916;-77
2021/04/14 01:52:15;;;;;;;;;;;;;;;;;;5095454;28;20446;-77
2021/04/14 01:54:40;;;;;;;;;;;;;;;;;;5097273;28;19923;-77
2021/04/14 01:57:06;;;;;;;;;;;;;;;;;;5096833;28;19949;-77
2021/04/14 01:59:31;;;;;;;;;;;;;;;;;;5096706;28;19912;-77
2021/04/14 02:01:56;;;;;;;;;;;;;;;;;;5097188;28;19911;-77
2021/04/14 02:04:22;;;;;;;;;;;;;;;;;;5094486;28;19912;-77
2021/04/14 02:06:47;;;;;;;;;;;;;;;;;;5093727;28;19918;-77
2021/04/14 02:09:13;;;;;;;;;;;;;;;;;;5094657;28;19918;-77
2021/04/14 02:11:39;;;;;;;;;;;;;;;;;;5095739;28;19973;-77
2021/04/14 02:14:04;;;;;;;;;;;;;;;;;;5096035;28;20338;-77
2021/04/14 02:16:30;;;;;;;;;;;;;;;;;;5096500;28;19930;-77
2021/04/14 02:18:55;;;;;;;;;;;;;;;;;;5096412;28;19912;-77
2021/04/14 02:21:21;;;;;;;;;;;;;;;;;;5096339;28;20342;-77
2021/04/14 02:23:47;;;;;;;;;;;;;;;;;;5095840;28;20374;-77
2021/04/14 02:26:17;;;;;;;;;;;;;;;;;;5096177;28;19919;-77
2021/04/14 02:28:45;;;;;;;;;;;;;;;;;;5094657;28;19919;-78
2021/04/14 02:31:11;;;;;;;;;;;;;;;;;;5096651;28;20354;-78
2021/04/14 02:33:36;;;;;;;;;;;;;;;;;;5098708;28;19954;-78
2021/04/14 02:36:02;;;;;;;;;;;;;;;;;;5099582;28;19916;-77
2021/04/14 02:38:27;;;;;;;;;;;;;;;;;;5097990;28;19912;-77
2021/04/14 02:40:52;;;;;;;;;;;;;;;;;;5114461;28;20014;-78
2021/04/14 02:43:18;;;;;;;;;;;;;;;;;;5118842;28;19907;-78
2021/04/14 02:45:44;;;;;;;;;;;;;;;;;;5118365;28;19968;-78
2021/04/14 02:48:10;;;;;;;;;;;;;;;;;;5119374;28;19918;-78
2021/04/14 02:50:35;;;;;;;;;;;;;;;;;;5119088;28;19911;-78
2021/04/14 02:53:01;;;;;;;;;;;;;;;;;;5118017;28;20030;-78
2021/04/14 02:55:27;;;;;;;;;;;;;;;;;;5117136;28;19915;-77
2021/04/14 02:57:53;;;;;;;;;;;;;;;;;;5117339;28;19912;-78
2021/04/14 03:00:19;;;;;;;;;;;;;;;;;;5118966;28;20276;-78
2021/04/14 03:02:44;;;;;;;;;;;;;;;;;;5118123;28;20330;-78
2021/04/14 03:05:11;;;;;;;;;;;;;;;;;;5100094;28;19967;-78
2021/04/14 03:07:36;;;;;;;;;;;;;;;;;;5116681;28;20365;-78
2021/04/14 03:10:02;;;;;;;;;;;;;;;;;;5094504;28;19919;-78
2021/04/14 03:12:29;;;;;;;;;;;;;;;;;;5080806;28;20326;-78
2021/04/14 03:14:55;;;;;;;;;;;;;;;;;;5078865;28;20002;-78
2021/04/14 03:17:20;;;;;;;;;;;;;;;;;;5080577;28;20301;-78
2021/04/14 03:19:46;;;;;;;;;;;;;;;;;;5079622;28;19912;-78
2021/04/14 03:22:11;;;;;;;;;;;;;;;;;;5077945;28;19919;-78
2021/04/14 03:24:37;;;;;;;;;;;;;;;;;;5078466;28;19948;-78
2021/04/14 03:27:02;;;;;;;;;;;;;;;;;;5079362;28;19956;-78
2021/04/14 03:29:27;;;;;;;;;;;;;;;;;;5079434;28;19959;-78
2021/04/14 03:31:53;;;;;;;;;;;;;;;;;;5080253;28;19916;-78
2021/04/14 03:34:18;;;;;;;;;;;;;;;;;;5080105;28;19955;-78
2021/04/14 03:36:43;;;;;;;;;;;;;;;;;;5080971;28;19920;-78
2021/04/14 03:39:09;;;;;;;;;;;;;;;;;;5086822;28;19957;-77
2021/04/14 03:41:34;;;;;;;;;;;;;;;;;;5099879;28;19912;-78
2021/04/14 03:44:00;;;;;;;;;;;;;;;;;;5098766;28;19920;-78
2021/04/14 03:46:25;;;;;;;;;;;;;;;;;;5097748;28;19975;-78
2021/04/14 03:48:51;;;;;;;;;;;;;;;;;;5096554;28;19916;-78
2021/04/14 03:51:17;;;;;;;;;;;;;;;;;;5097199;28;19950;-78
2021/04/14 03:53:43;;;;;;;;;;;;;;;;;;5080641;28;19912;-78
2021/04/14 03:56:15;;;;;;;;;;;;;;;;;;5096523;28;19961;-78
2021/04/14 03:58:42;;;;;;;;;;;;;;;;;;5079866;28;19916;-78
2021/04/14 04:01:10;;;;;;;;;;;;;;;;;;5097199;28;19965;-78
2021/04/14 04:03:35;;;;;;;;;;;;;;;;;;5080308;28;20329;-77
2021/04/14 04:06:00;;;;;;;;;;;;;;;;;;5079585;28;19920;-77
2021/04/14 04:08:26;;;;;;;;;;;;;;;;;;5097364;28;20285;-77
2021/04/14 04:10:51;;;;;;;;;;;;;;;;;;5096261;28;19912;-77
2021/04/14 04:13:17;;;;;;;;;;;;;;;;;;5096691;28;20023;-78
2021/04/14 04:15:43;;;;;;;;;;;;;;;;;;5096483;28;19916;-77
2021/04/14 04:18:08;;;;;;;;;;;;;;;;;;5095549;28;19924;-77
2021/04/14 04:20:34;;;;;;;;;;;;;;;;;;5095418;28;19966;-77
2021/04/14 04:23:01;;;;;;;;;;;;;;;;;;5096306;28;20296;-77
2021/04/14 04:25:26;;;;;;;;;;;;;;;;;;5095220;28;19912;-77
2021/04/14 04:27:51;;;;;;;;;;;;;;;;;;5096501;28;20006;-77
2021/04/14 04:30:17;;;;;;;;;;;;;;;;;;5096393;28;19916;-77
2021/04/14 04:32:43;;;;;;;;;;;;;;;;;;5094628;28;19912;-77
2021/04/14 04:35:08;;;;;;;;;;;;;;;;;;5096359;28;19915;-77
2021/04/14 04:37:34;;;;;;;;;;;;;;;;;;5096103;28;20350;-77
2021/04/14 04:39:59;;;;;;;;;;;;;;;;;;5096101;28;19972;-77
2021/04/14 04:42:25;;;;;;;;;;;;;;;;;;5095310;28;20374;-77
2021/04/14 04:44:50;;;;;;;;;;;;;;;;;;5095533;28;19923;-77
2021/04/14 04:47:15;;;;;;;;;;;;;;;;;;5096339;28;19970;-77
2021/04/14 04:49:41;;;;;;;;;;;;;;;;;;5096280;28;20357;-78
2021/04/14 04:52:06;;;;;;;;;;;;;;;;;;5094976;28;20007;-77
2021/04/14 04:54:32;;;;;;;;;;;;;;;;;;5095690;28;19918;-77
2021/04/14 04:56:57;;;;;;;;;;;;;;;;;;5096833;28;19947;-76
2021/04/14 04:59:23;;;;;;;;;;;;;;;;;;5096783;28;19958;-78
2021/04/14 05:01:48;;;;;;;;;;;;;;;;;;5098384;28;19912;-79
2021/04/14 05:04:13;;;;;;;;;;;;;;;;;;5097837;28;19918;-78
2021/04/14 05:06:39;;;;;;;;;;;;;;;;;;5098178;28;20349;-79
2021/04/14 05:09:04;;;;;;;;;;;;;;;;;;5098760;28;19972;-77
2021/04/14 05:11:30;;;;;;;;;;;;;;;;;;5096567;28;19923;-78
2021/04/14 05:13:57;;;;;;;;;;;;;;;;;;5100906;28;19912;-78
2021/04/14 05:16:22;;;;;;;;;;;;;;;;;;5101262;28;19979;-77
2021/04/14 05:18:48;;;;;;;;;;;;;;;;;;5097961;28;20406;-78
2021/04/14 05:21:13;;;;;;;;;;;;;;;;;;5100331;28;19919;-79
2021/04/14 05:23:39;;;;;;;;;;;;;;;;;;5102906;28;19967;-78
2021/04/14 05:26:04;;;;;;;;;;;;;;;;;;5100228;28;19913;-79
2021/04/14 05:28:30;;;;;;;;;;;;;;;;;;5101010;28;19916;-79
2021/04/14 05:30:55;;;;;;;;;;;;;;;;;;5099288;28;19961;-79
2021/04/14 05:33:21;;;;;;;;;;;;;;;;;;5099614;28;19912;-79
2021/04/14 05:35:46;;;;;;;;;;;;;;;;;;5085346;28;19923;-80
2021/04/14 05:38:12;;;;;;;;;;;;;;;;;;5084263;28;19912;-80
2021/04/14 05:40:38;;;;;;;;;;;;;;;;;;5088154;28;19912;-80
2021/04/14 05:43:11;;;;;;;;;;;;;;;;;;5101661;28;19916;-79
2021/04/14 05:45:36;;;;;;;;;;;;;;;;;;5097834;28;19959;-79
2021/04/14 05:48:01;;;;;;;;;;;;;;;;;;5099897;28;19919;-79
2021/04/14 05:50:27;;;;;;;;;;;;;;;;;;5106725;28;20293;-77
2021/04/14 05:52:52;;;;;;;;;;;;;;;;;;5101618;28;20278;-79
2021/04/14 05:55:18;;;;;;;;;;;;;;;;;;5099541;28;20309;-79
2021/04/14 05:57:44;;;;;;;;;;;;;;;;;;5094741;28;19962;-79
2021/04/14 06:00:13;;;;;;;;;;;;;;;;;;5095008;28;19911;-78
2021/04/14 06:02:41;;;;;;;;;;;;;;;;;;5097223;28;20006;-78
2021/04/14 06:05:07;;;;;;;;;;;;;;;;;;5095294;28;19934;-78
2021/04/14 06:07:32;;;;;;;;;;;;;;;;;;5097048;28;19975;-80
2021/04/14 06:09:57;;;;;;;;;;;;;;;;;;5099013;28;20303;-79
2021/04/14 06:12:23;;;;;;;;;;;;;;;;;;5094336;28;19922;-77
2021/04/14 06:14:48;;;;;;;;;;;;;;;;;;5095380;28;19916;-78
2021/04/14 06:17:13;;;;;;;;;;;;;;;;;;5095042;28;20261;-77
2021/04/14 06:19:39;;;;;;;;;;;;;;;;;;5094044;28;19919;-77
2021/04/14 06:22:05;;;;;;;;;;;;;;;;;;5092883;28;19912;-77
2021/04/14 06:24:30;;;;;;;;;;;;;;;;;;5094110;28;20049;-77
2021/04/14 06:26:59;;;;;;;;;;;;;;;;;;5092189;28;19912;-78
2021/04/14 06:29:24;;;;;;;;;;;;;;;;;;5091161;28;19958;-78
2021/04/14 06:31:52;;;;;;;;;;;;;;;;;;5101346;28;19920;-81
2021/04/14 06:34:23;;;;;;;;;;;;;;;;;;5102958;28;19912;-80
2021/04/14 06:36:50;;;;;;;;;;;;;;;;;;5100901;28;19937;-79
2021/04/14 06:39:16;;;;;;;;;;;;;;;;;;5094515;28;20003;-80
2021/04/14 06:44:45;;;;;;;;;;;;;;;;;;5077590;28;19913;-80
2021/04/14 06:47:14;;;;;;;;;;;;;;;;;;5077519;28;19912;-80
2021/04/14 06:49:44;;;;;;;;;;;;;;;;;;5077209;28;19942;-80
2021/04/14 06:52:10;;;;;;;;;;;;;;;;;;5078009;28;19957;-82
2021/04/14 06:54:38;;;;;;;;;;;;;;;;;;5077486;28;19999;-82
2021/04/14 06:57:05;;;;;;;;;;;;;;;;;;5076247;28;19913;-83
2021/04/14 06:59:33;;;;;;;;;;;;;;;;;;5077149;28;19930;-85
2021/04/14 07:02:01;;;;;;;;;;;;;;;;;;5058492;28;19913;-78
2021/04/14 07:04:31;;;;;;;;;;;;;;;;;;5074321;28;19908;-77
2021/04/14 07:07:00;;;;;;;;;;;;;;;;;;5074176;28;20366;-75
2021/04/14 07:09:26;;;;;;;;;;;;;;;;;;5080728;28;19919;-76
2021/04/14 07:11:52;;;;;;;;;;;;;;;;;;5091933;28;20357;-76
2021/04/14 07:14:17;;;;;;;;;;;;;;;;;;5090688;28;19951;-76
2021/04/14 07:16:48;;;;;;;;;;;;;;;;;;5091790;28;19943;-76
2021/04/14 07:19:18;;;;;;;;;;;;;;;;;;5092564;28;19958;-80
2021/04/14 07:21:49;;;;;;;;;;;;;;;;;;5094974;28;19912;-79
2021/04/14 07:24:25;;;;;;;;;;;;;;;;;;5095473;28;19995;-79
2021/04/14 07:27:01;;;;;;;;;;;;;;;;;;5096010;28;20397;-79
2021/04/14 07:29:32;;;;;;;;;;;;;;;;;;5096385;28;19912;-77
2021/04/14 07:32:12;;;;;;;;;;;;;;;;;;5092724;28;20358;-77
2021/04/14 07:34:56;;;;;;;;;;;;;;;;;;5098091;28;20298;-80
2021/04/14 07:37:40;;;;;;;;;;;;;;;;;;5099642;28;19961;-83
2021/04/14 07:40:14;;;;;;;;;;;;;;;;;;5091867;28;19943;-83
2021/04/14 07:43:00;;;;;;;;;;;;;;;;;;5120661;28;20335;-80
2021/04/14 07:45:26;;;;;;;;;;;;;;;;;;5116183;28;19919;-81
2021/04/14 07:47:53;;;;;;;;;;;;;;;;;;5118624;28;19920;-82
2021/04/14 07:50:19;;;;;;;;;;;;;;;;;;5118343;28;20050;-82
2021/04/14 07:52:45;;;;;;;;;;;;;;;;;;5120847;28;19911;-79
2021/04/14 07:55:31;;;;;;;;;;;;;;;;;;5121603;28;19981;-84
2021/04/14 07:58:25;;;;;;;;;;;;;;;;;;5122053;28;19933;-80
2021/04/14 08:00:51;;;;;;;;;;;;;;;;;;5117647;28;19915;-84
2021/04/14 08:03:22;;;;;;;;;;;;;;;;;;5103692;28;20521;-79
2021/04/14 08:05:48;;;;;;;;;;;;;;;;;;5120976;28;19912;-78
2021/04/14 08:08:20;;;;;;;;;;;;;;;;;;5122711;27;19920;-81
2021/04/14 08:10:53;;;;;;;;;;;;;;;;;;5106117;28;19937;-78
2021/04/14 08:13:23;;;;;;;;;;;;;;;;;;5103405;28;20015;-79
2021/04/14 08:15:49;;;;;;;;;;;;;;;;;;5087648;28;20050;-80
2021/04/14 08:18:17;;;;;;;;;;;;;;;;;;5086468;28;19913;-85
2021/04/14 08:20:44;;;;;;;;;;;;;;;;;;5082734;28;19912;-80
2021/04/14 08:23:12;;;;;;;;;;;;;;;;;;5076840;28;19912;-80
2021/04/14 08:25:42;;;;;;;;;;;;;;;;;;5077667;28;19927;-78
2021/04/14 08:28:07;;;;;;;;;;;;;;;;;;5076359;28;19970;-79
2021/04/14 08:30:32;;;;;;;;;;;;;;;;;;5078189;28;19916;-79
2021/04/14 08:33:03;;;;;;;;;;;;;;;;;;5080073;28;19913;-81
2021/04/14 08:35:28;;;;;;;;;;;;;;;;;;5077652;28;19920;-80
2021/04/14 08:37:59;;;;;;;;;;;;;;;;;;5078392;28;19913;-82
2021/04/14 08:40:27;;;;;;;;;;;;;;;;;;5078181;28;19912;-81
2021/04/14 08:42:53;;;;;;;;;;;;;;;;;;5097289;28;19933;-79
2021/04/14 08:45:21;;;;;;;;;;;;;;;;;;5119712;28;19912;-80
2021/04/14 08:48:02;;;;;;;;;;;;;;;;;;5118377;28;20010;-81
2021/04/14 08:50:30;;;;;;;;;;;;;;;;;;5118331;28;19912;-83
2021/04/14 08:52:58;;;;;;;;;;;;;;;;;;5116440;28;19918;-83
2021/04/14 08:55:26;;;;;;;;;;;;;;;;;;5116224;28;19920;-83
2021/04/14 08:57:52;;;;;;;;;;;;;;;;;;5098980;28;19918;-84
2021/04/14 09:00:18;;;;;;;;;;;;;;;;;;5116942;28;19911;-81
2021/04/14 09:02:43;;;;;;;;;;;;;;;;;;5117912;28;20441;-78
2021/04/14 09:05:09;;;;;;;;;;;;;;;;;;5117293;28;19976;-80
2021/04/14 09:07:36;;;;;;;;;;;;;;;;;;5116534;28;19934;-79
2021/04/14 09:10:05;;;;;;;;;;;;;;;;;;5117784;28;19966;-79
2021/04/14 09:12:36;;;;;;;;;;;;;;;;;;5109011;28;19916;-79
2021/04/14 09:15:03;;;;;;;;;;;;;;;;;;5098596;28;19922;-79
2021/04/14 09:17:28;;;;;;;;;;;;;;;;;;5079082;28;19913;-80
2021/04/14 09:19:55;;;;;;;;;;;;;;;;;;5078207;28;20298;-81
2021/04/14 09:22:28;;;;;;;;;;;;;;;;;;5078493;28;19912;-83
2021/04/14 09:24:54;;;;;;;;;;;;;;;;;;5080739;28;20374;-79
2021/04/14 09:27:19;;;;;;;;;;;;;;;;;;5078398;28;19912;-83
2021/04/14 09:30:04;;;;;;;;;;;;;;;;;;5082136;28;19912;-83
2021/04/14 09:32:38;;;;;;;;;;;;;;;;;;5079531;28;19979;-83
2021/04/14 09:35:13;;;;;;;;;;;;;;;;;;5078182;28;20407;-80
2021/04/14 09:37:38;;;;;;;;;;;;;;;;;;5079670;28;19976;-78
2021/04/14 09:40:04;;;;;;;;;;;;;;;;;;5081673;28;19947;-79
2021/04/14 09:42:32;;;;;;;;;;;;;;;;;;5081294;28;19947;-80
2021/04/14 09:45:12;;;;;;;;;;;;;;;;;;5080159;28;19913;-78
2021/04/14 09:47:37;;;;;;;;;;;;;;;;;;5078167;28;20425;-81
2021/04/14 09:50:23;;;;;;;;;;;;;;;;;;5079732;28;20014;-80
2021/04/14 09:52:50;;;;;;;;;;;;;;;;;;5072269;28;20268;-79
2021/04/14 09:55:16;;;;;;;;;;;;;;;;;;5075521;28;19958;-77
2021/04/14 09:57:43;;;;;;;;;;;;;;;;;;5076763;28;19912;-79
2021/04/14 10:00:13;;;;;;;;;;;;;;;;;;5075889;28;20015;-80
2021/04/14 10:02:39;;;;;;;;;;;;;;;;;;5075002;28;19919;-78
2021/04/14 10:05:05;;;;;;;;;;;;;;;;;;5075442;28;19912;-80
2021/04/14 10:07:32;;;;;;;;;;;;;;;;;;5082066;28;19917;-82
2021/04/14 10:10:10;;;;;;;;;;;;;;;;;;5077046;28;20019;-82
2021/04/14 10:12:35;;;;;;;;;;;;;;;;;;5103543;28;20003;-84
2021/04/14 10:15:01;;;;;;;;;;;;;;;;;;5085380;28;19955;-85
2021/04/14 10:17:29;;;;;;;;;;;;;;;;;;5100180;28;20285;-84
2021/04/14 10:19:56;;;;;;;;;;;;;;;;;;5099863;28;19956;-84
2021/04/14 10:22:26;;;;;;;;;;;;;;;;;;5100898;28;20003;-81
2021/04/14 10:24:59;;;;;;;;;;;;;;;;;;5098598;28;19912;-80
2021/04/14 10:27:24;;;;;;;;;;;;;;;;;;5101139;28;19919;-82
2021/04/14 10:29:50;;;;;;;;;;;;;;;;;;5097732;28;19915;-85
2021/04/14 10:32:24;;;;;;;;;;;;;;;;;;5099113;28;19916;-79
2021/04/14 10:34:51;;;;;;;;;;;;;;;;;;5095409;28;20373;-78
2021/04/14 10:37:22;;;;;;;;;;;;;;;;;;5094250;28;19912;-79
2021/04/14 10:39:48;;;;;;;;;;;;;;;;;;5095110;28;19919;-78
2021/04/14 10:42:18;;;;;;;;;;;;;;;;;;5094071;28;19912;-77
2021/04/14 10:44:44;;;;;;;;;;;;;;;;;;5093697;28;20011;-76
2021/04/14 10:47:12;;;;;;;;;;;;;;;;;;5075583;28;20011;-74
2021/04/14 10:49:38;;;;;;;;;;;;;;;;;;5094002;28;19919;-74
2021/04/14 10:52:09;;;;;;;;;;;;;;;;;;5094268;28;19912;-73
2021/04/14 10:54:35;;;;;;;;;;;;;;;;;;5093116;28;19957;-74
2021/04/14 10:57:02;;;;;;;;;;;;;;;;;;5093652;28;20300;-75
2021/04/14 10:59:28;;;;;;;;;;;;;;;;;;5093431;28;19912;-76
2021/04/14 11:01:54;;;;;;;;;;;;;;;;;;5093672;28;19958;-76
2021/04/14 11:04:20;;;;;;;;;;;;;;;;;;5092524;28;19912;-76
2021/04/14 11:06:48;;;;;;;;;;;;;;;;;;5092403;28;20401;-77
2021/04/14 11:09:13;;;;;;;;;;;;;;;;;;5093160;28;20389;-77
2021/04/14 11:11:40;;;;;;;;;;;;;;;;;;5092648;28;19912;-77
2021/04/14 11:14:06;;;;;;;;;;;;;;;;;;5092868;28;19916;-76
2021/04/14 11:16:33;;;;;;;;;;;;;;;;;;5092410;28;19911;-77
2021/04/14 11:18:59;;;;;;;;;;;;;;;;;;5093939;28;19919;-76
2021/04/14 11:21:29;;;;;;;;;;;;;;;;;;5093435;28;20285;-77
2021/04/14 11:24:09;;;;;;;;;;;;;;;;;;5091575;28;19951;-77
2021/04/14 11:26:39;;;;;;;;;;;;;;;;;;5092978;28;19912;-77
2021/04/14 11:29:04;;;;;;;;;;;;;;;;;;5094771;28;20269;-77
2021/04/14 11:31:29;;;;;;;;;;;;;;;;;;5096164;28;19920;-75
2021/04/14 11:33:55;;;;;;;;;;;;;;;;;;5097743;28;20010;-76
2021/04/14 11:36:29;;;;;;;;;;;;;;;;;;5097320;28;19920;-76
2021/04/14 11:39:00;;;;;;;;;;;;;;;;;;5096079;28;20347;-75
2021/04/14 11:41:28;;;;;;;;;;;;;;;;;;5097302;28;19912;-76
2021/04/14 11:43:54;;;;;;;;;;;;;;;;;;5096103;28;19965;-77
2021/04/14 11:46:31;;;;;;;;;;;;;;;;;;5097470;28;19955;-77
2021/04/14 11:48:57;;;;;;;;;;;;;;;;;;5097340;28;19965;-81
2021/04/14 11:51:29;;;;;;;;;;;;;;;;;;5097347;28;19918;-78
2021/04/14 11:53:59;;;;;;;;;;;;;;;;;;5097635;28;19918;-78
2021/04/14 11:56:38;;;;;;;;;;;;;;;;;;5099180;28;20400;-79
2021/04/14 11:59:05;;;;;;;;;;;;;;;;;;5098777;28;19912;-78
2021/04/14 12:01:32;;;;;;;;;;;;;;;;;;5101232;28;19916;-78
2021/04/14 12:04:08;;;;;;;;;;;;;;;;;;5103836;28;19919;-78
2021/04/14 12:06:33;;;;;;;;;;;;;;;;;;5103222;28;20270;-78
2021/04/14 12:08:59;;;;;;;;;;;;;;;;;;5101676;28;19912;-78
2021/04/14 12:11:24;;;;;;;;;;;;;;;;;;5102319;28;20346;-78
2021/04/14 12:13:51;;;;;;;;;;;;;;;;;;5101375;28;20323;-79
2021/04/14 12:16:16;;;;;;;;;;;;;;;;;;5102391;28;20300;-78
2021/04/14 12:18:42;;;;;;;;;;;;;;;;;;5101227;28;19926;-78
2021/04/14 12:21:08;;;;;;;;;;;;;;;;;;5103484;28;19916;-78
2021/04/14 12:23:33;;;;;;;;;;;;;;;;;;5102882;28;20263;-79
2021/04/14 12:25:59;;;;;;;;;;;;;;;;;;5102920;28;19925;-80
2021/04/14 12:28:24;;;;;;;;;;;;;;;;;;5099435;28;20288;-78
2021/04/14 12:30:49;;;;;;;;;;;;;;;;;;5100320;28;19918;-78
2021/04/14 12:33:15;;;;;;;;;;;;;;;;;;5103752;28;19956;-79
2021/04/14 12:35:40;;;;;;;;;;;;;;;;;;5106207;28;19927;-78
2021/04/14 12:38:06;;;;;;;;;;;;;;;;;;5101943;28;19983;-78
2021/04/14 12:40:32;;;;;;;;;;;;;;;;;;5097662;28;20404;-78
2021/04/14 12:42:57;;;;;;;;;;;;;;;;;;5098674;28;19918;-79
2021/04/14 12:45:23;;;;;;;;;;;;;;;;;;5098528;28;19927;-78
2021/04/14 12:47:48;;;;;;;;;;;;;;;;;;5099106;28;20014;-78
2021/04/14 12:50:13;;;;;;;;;;;;;;;;;;5096546;28;19993;-78
2021/04/14 12:52:43;;;;;;;;;;;;;;;;;;5097129;28;19912;-75
2021/04/14 12:55:12;;;;;;;;;;;;;;;;;;5096072;28;20354;-78
2021/04/14 12:57:39;;;;;;;;;;;;;;;;;;5097390;28;19958;-78
2021/04/14 13:00:10;;;;;;;;;;;;;;;;;;5096792;28;19912;-78
2021/04/14 13:02:41;;;;;;;;;;;;;;;;;;5096064;28;19988;-78
2021/04/14 13:05:09;;;;;;;;;;;;;;;;;;5095596;28;19999;-78
2021/04/14 13:07:38;;;;;;;;;;;;;;;;;;5095719;28;19912;-78
2021/04/14 13:10:04;;;;;;;;;;;;;;;;;;5095658;28;20420;-78
2021/04/14 13:12:31;;;;;;;;;;;;;;;;;;5096850;28;19912;-78
2021/04/14 13:14:57;;;;;;;;;;;;;;;;;;5096087;28;19916;-78
2021/04/14 13:17:27;;;;;;;;;;;;;;;;;;5095334;28;19919;-78
2021/04/14 13:19:53;;;;;;;;;;;;;;;;;;5097408;28;20270;-79
2021/04/14 13:22:21;;;;;;;;;;;;;;;;;;5098338;28;19940;-76
2021/04/14 13:25:09;;;;;;;;;;;;;;;;;;5093629;28;20002;-77
2021/04/14 13:27:41;;;;;;;;;;;;;;;;;;5084223;28;19919;-76
2021/04/14 13:30:24;;;;;;;;;;;;;;;;;;5095129;28;19912;-77
2021/04/14 13:32:57;;;;;;;;;;;;;;;;;;5095258;28;19912;-77
2021/04/14 13:35:24;;;;;;;;;;;;;;;;;;5094956;28;19920;-77
2021/04/14 13:38:00;;;;;;;;;;;;;;;;;;5093724;28;19916;-77
2021/04/14 13:40:35;;;;;;;;;;;;;;;;;;5095146;28;19912;-77
2021/04/14 13:43:01;;;;;;;;;;;;;;;;;;5093625;28;19912;-77
2021/04/14 13:45:41;;;;;;;;;;;;;;;;;;5094936;28;19963;-77
2021/04/14 13:48:15;;;;;;;;;;;;;;;;;;5094702;28;19996;-77
2021/04/14 13:50:46;;;;;;;;;;;;;;;;;;5094802;28;20004;-77
2021/04/14 13:53:13;;;;;;;;;;;;;;;;;;5094395;28;19948;-77
2021/04/14 13:55:39;;;;;;;;;;;;;;;;;;5093590;28;19997;-76
2021/04/14 13:58:07;;;;;;;;;;;;;;;;;;5094296;28;19916;-77
2021/04/14 14:00:43;;;;;;;;;;;;;;;;;;5092838;28;19916;-77
2021/04/14 14:03:09;;;;;;;;;;;;;;;;;;5094930;28;19911;-78
2021/04/14 14:05:39;;;;;;;;;;;;;;;;;;5095411;28;20380;-77
2021/04/14 14:08:04;;;;;;;;;;;;;;;;;;5093722;28;19912;-77
2021/04/14 14:10:37;;;;;;;;;;;;;;;;;;5095022;28;20353;-77
2021/04/14 14:13:21;;;;;;;;;;;;;;;;;;5075894;28;19937;-77
2021/04/14 14:16:01;;;;;;;;;;;;;;;;;;5094561;28;19916;-77
2021/04/14 14:18:26;;;;;;;;;;;;;;;;;;5094388;28;19912;-77
2021/04/14 14:20:55;;;;;;;;;;;;;;;;;;5094491;28;19950;-77
2021/04/14 14:23:21;;;;;;;;;;;;;;;;;;5093188;28;19912;-77
2021/04/14 14:25:50;;;;;;;;;;;;;;;;;;5094183;28;19911;-77
2021/04/14 14:28:16;;;;;;;;;;;;;;;;;;5094463;28;20396;-77
2021/04/14 14:30:41;;;;;;;;;;;;;;;;;;5092927;28;19916;-77
2021/04/14 14:33:07;;;;;;;;;;;;;;;;;;5094703;28;20442;-85
2021/04/14 14:35:32;;;;;;;;;;;;;;;;;;5095965;28;19955;-83
2021/04/14 14:38:01;;;;;;;;;;;;;;;;;;5096631;28;19961;-80
2021/04/14 14:40:28;;;;;;;;;;;;;;;;;;5095158;28;19912;-79
2021/04/14 14:42:59;;;;;;;;;;;;;;;;;;5096351;28;20326;-79
2021/04/14 14:45:24;;;;;;;;;;;;;;;;;;5097969;28;20304;-80
2021/04/14 14:47:56;;;;;;;;;;;;;;;;;;5078672;28;19964;-80
2021/04/14 14:50:23;;;;;;;;;;;;;;;;;;5096411;28;19999;-80
2021/04/14 14:52:49;;;;;;;;;;;;;;;;;;5096095;28;19912;-82
2021/04/14 14:55:16;;;;;;;;;;;;;;;;;;5097294;28;19927;-78
2021/04/14 14:57:41;;;;;;;;;;;;;;;;;;5094593;28;19916;-79
2021/04/14 15:00:08;;;;;;;;;;;;;;;;;;5095667;28;19919;-79
2021/04/14 15:02:35;;;;;;;;;;;;;;;;;;5096325;28;19919;-79
2021/04/14 15:05:00;;;;;;;;;;;;;;;;;;5095071;28;20350;-79
2021/04/14 15:07:27;;;;;;;;;;;;;;;;;;5097301;28;20019;-77
2021/04/14 15:09:52;;;;;;;;;;;;;;;;;;5095428;28;19961;-77
2021/04/14 15:12:19;;;;;;;;;;;;;;;;;;5098001;28;19911;-78
2021/04/14 15:14:44;;;;;;;;;;;;;;;;;;5077474;28;20404;-77
2021/04/14 15:17:10;;;;;;;;;;;;;;;;;;5093688;28;20527;-76
2021/04/14 15:19:38;;;;;;;;;;;;;;;;;;5093596;28;20494;-79
2021/04/14 15:22:07;;;;;;;;;;;;;;;;;;5095686;28;19964;-79
2021/04/14 15:24:35;;;;;;;;;;;;;;;;;;5096556;28;19964;-79
2021/04/14 15:27:20;;;;;;;;;;;;;;;;;;5088958;28;19908;-79
2021/04/14 15:29:47;;;;;;;;;;;;;;;;;;5086492;28;19912;-78
2021/04/14 15:32:12;;;;;;;;;;;;;;;;;;5086542;28;20350;-78
2021/04/14 15:34:38;;;;;;;;;;;;;;;;;;5087946;28;19916;-78
2021/04/14 15:37:04;;;;;;;;;;;;;;;;;;5095930;28;19916;-78
2021/04/14 15:39:29;;;;;;;;;;;;;;;;;;5092935;28;19912;-77
2021/04/14 15:41:55;;;;;;;;;;;;;;;;;;5093582;28;20404;-78
2021/04/14 15:44:21;;;;;;;;;;;;;;;;;;5094963;28;20002;-77
2021/04/14 15:46:47;;;;;;;;;;;;;;;;;;5094037;28;19994;-77
2021/04/14 15:49:22;;;;;;;;;;;;;;;;;;5094996;28;19918;-77
2021/04/14 15:51:47;;;;;;;;;;;;;;;;;;5094767;28;19920;-78
2021/04/14 15:54:13;;;;;;;;;;;;;;;;;;5093171;28;19997;-73
2021/04/14 15:56:38;;;;;;;;;;;;;;;;;;5093595;28;20257;-76
2021/04/14 15:59:08;;;;;;;;;;;;;;;;;;5094236;28;19912;-77
2021/04/14 16:01:36;;;;;;;;;;;;;;;;;;5093126;28;19933;-75
2021/04/14 16:04:04;;;;;;;;;;;;;;;;;;5092318;28;19927;-76
2021/04/14 16:06:31;;;;;;;;;;;;;;;;;;5093227;28;20378;-75
2021/04/14 16:08:56;;;;;;;;;;;;;;;;;;5091880;28;19911;-76
2021/04/14 16:11:22;;;;;;;;;;;;;;;;;;5091842;28;19973;-75
2021/04/14 16:13:48;;;;;;;;;;;;;;;;;;5090570;28;20358;-74
2021/04/14 16:16:14;;;;;;;;;;;;;;;;;;5096676;28;19927;-75
2021/04/14 16:18:39;;;;;;;;;;;;;;;;;;5097693;28;19920;-78
2021/04/14 16:21:05;;;;;;;;;;;;;;;;;;5102592;28;19912;-78
2021/04/14 16:23:31;;;;;;;;;;;;;;;;;;5096934;28;20380;-77
2021/04/14 16:25:59;;;;;;;;;;;;;;;;;;5086138;28;19913;-84
2021/04/14 16:28:25;;;;;;;;;;;;;;;;;;5064829;28;19912;-85
2021/04/14 16:30:51;;;;;;;;;;;;;;;;;;5080166;28;19917;-85
2021/04/14 16:33:17;;;;;;;;;;;;;;;;;;5080400;28;19918;-83
2021/04/14 16:35:42;;;;;;;;;;;;;;;;;;5080993;28;19920;-82
2021/04/14 16:38:07;;;;;;;;;;;;;;;;;;5082123;28;19912;-81
2021/04/14 16:40:33;;;;;;;;;;;;;;;;;;5082324;28;19916;-81
2021/04/14 16:42:59;;;;;;;;;;;;;;;;;;5063085;28;20437;-85
2021/04/14 16:45:25;;;;;;;;;;;;;;;;;;5082228;28;20242;-84
2021/04/14 16:47:52;;;;;;;;;;;;;;;;;;5080652;28;19924;-84
2021/04/14 16:50:18;;;;;;;;;;;;;;;;;;5064407;28;19955;-83
2021/04/14 16:52:44;;;;;;;;;;;;;;;;;;5081274;28;19912;-84